Terminal Aerodrome Forecast
Issued by NWS

Home | Current Version | Previous Version | Text Only | Print | Product List | Glossary On
Versions: 1 2 3 4 5 6 7 8 9 10 11 12 13 14 15 16 17 18
620
FTUS43 KSGF 012325
TAFBBG
TAF
KBBG 012325Z 0200/0224 32008KT P6SM FEW110 SCT250
     FM021100 32004KT P6SM OVC015
     FM021600 31005KT P6SM BKN025
     FM021900 32008KT P6SM BKN035=

USA.gov is the U.S. government's official web portal to all federal, state and local government web resources and services.